ROMMA est une association bénévole à but non lucratif. Votre soutien est indispensable : ADHERER à ROMMA ou FAIRE un DON

Crempigny-Bonneguête - (74, Haute-Savoie)

Albanais-Montagne des Princes (500 m)   Longitude: 05° 54' 5" E   Latitude: 45° 57' 0" N Station partenaire n°10
 

Détail journalier du     <<     >>

Température Precipitation Humidité Pression Vent Dir Rafale Dir. rafale Ensol. 20 cm au dessus du sol
Heure (°C) (mm) (%) (hPa) (km/h) (km/h) (min) (°C)
01:00 3.708610054NO11NO02.8
02:00 3.408710053ONO10N02.2
03:00 3.008810053NO6NO02.2
04:00 3.608710055N11N02.8
05:00 3.708510043NO11N02.8
06:00 3.508610043ONO6NO02.8
07:00 4.108510044NNO16N03.3
08:00 4.308610036N21NNE03.9
09:00 5.1084100310NNE24NE05.0
10:00 6.008310036NNE19NNE56.7
11:00 7.7076100312NNE29NNE308.9
12:00 9.6070100313NNE32NE6011.1
13:00 10.8066100312NE26NNE5512.8
14:00 12.106410039ENE19NNE2513.3
15:00 12.8057100210ENE27NNE1513.9
16:00 14.2056100210NE26N6015.6
17:00 14.705410025NE15NE5515.6
18:00 13.105710025NE18SO3512.8
19:00 11.5062100312SO24SO011.1
20:00 10.7066100417SO39OSO010.0
21:00 9.8070100416SO37SO08.9
22:00 8.807510055ESE16SSO07.8
23:00 8.007810053SE10S07.2
minuit 7.408310051SSO6SSO06.7

Graphique du 06-04-2019

 

Serveur OMMA